sensor_id;sensor_type;location;lat;lon;timestamp;pressure;altitude;pressure_sealevel;temperature;humidity
6899;BME280;3488;42.616;23.350;2022-08-06T00:00:22;64173.09;;;20.98;64.55
6899;BME280;3488;42.616;23.350;2022-08-06T00:02:48;64165.78;;;20.91;64.90
6899;BME280;3488;42.616;23.350;2022-08-06T00:05:15;64169.41;;;20.92;65.00
6899;BME280;3488;42.616;23.350;2022-08-06T00:07:42;64156.41;;;20.84;64.74
6899;BME280;3488;42.616;23.350;2022-08-06T00:10:09;64152.75;;;20.78;64.67
6899;BME280;3488;42.616;23.350;2022-08-06T00:12:36;64152.22;;;20.78;64.99
6899;BME280;3488;42.616;23.350;2022-08-06T00:15:06;64147.53;;;20.73;64.82
6899;BME280;3488;42.616;23.350;2022-08-06T00:17:33;64141.28;;;20.69;65.19
6899;BME280;3488;42.616;23.350;2022-08-06T00:20:00;64140.72;;;20.64;65.48
6899;BME280;3488;42.616;23.350;2022-08-06T00:22:27;64131.88;;;20.58;65.80
6899;BME280;3488;42.616;23.350;2022-08-06T00:24:54;64132.41;;;20.58;65.96
6899;BME280;3488;42.616;23.350;2022-08-06T00:27:21;64129.78;;;20.56;65.64
6899;BME280;3488;42.616;23.350;2022-08-06T00:29:48;64137.09;;;20.63;65.41
6899;BME280;3488;42.616;23.350;2022-08-06T00:32:16;64124.06;;;20.53;65.64
6899;BME280;3488;42.616;23.350;2022-08-06T00:34:43;64129.25;;;20.53;64.79
6899;BME280;3488;42.616;23.350;2022-08-06T00:37:10;64123.53;;;20.52;65.15
6899;BME280;3488;42.616;23.350;2022-08-06T00:39:37;64124.06;;;20.53;64.37
6899;BME280;3488;42.616;23.350;2022-08-06T00:42:04;64129.81;;;20.58;64.63
6899;BME280;3488;42.616;23.350;2022-08-06T00:44:31;64134.97;;;20.58;64.99
6899;BME280;3488;42.616;23.350;2022-08-06T00:46:58;64127.19;;;20.53;64.85
6899;BME280;3488;42.616;23.350;2022-08-06T00:49:27;64121.44;;;20.50;65.54
6899;BME280;3488;42.616;23.350;2022-08-06T00:51:54;64118.84;;;20.48;66.60
6899;BME280;3488;42.616;23.350;2022-08-06T00:54:21;64121.94;;;20.48;67.12
6899;BME280;3488;42.616;23.350;2022-08-06T00:56:48;64116.75;;;20.46;66.33
6899;BME280;3488;42.616;23.350;2022-08-06T00:59:15;64116.75;;;20.46;66.47
6899;BME280;3488;42.616;23.350;2022-08-06T01:01:42;64112.06;;;20.41;66.94
6899;BME280;3488;42.616;23.350;2022-08-06T01:04:09;64110.47;;;20.40;67.38
6899;BME280;3488;42.616;23.350;2022-08-06T01:06:37;64111.53;;;20.41;66.68
6899;BME280;3488;42.616;23.350;2022-08-06T01:09:05;64108.91;;;20.38;67.28
6899;BME280;3488;42.616;23.350;2022-08-06T01:11:32;64096.94;;;20.29;67.82
6899;BME280;3488;42.616;23.350;2022-08-06T01:13:59;64103.22;;;20.35;66.92
6899;BME280;3488;42.616;23.350;2022-08-06T01:16:30;64105.78;;;20.35;66.73
6899;BME280;3488;42.616;23.350;2022-08-06T01:19:04;64099.56;;;20.32;67.42
6899;BME280;3488;42.616;23.350;2022-08-06T01:22:05;64105.81;;;20.38;67.60
6899;BME280;3488;42.616;23.350;2022-08-06T01:24:53;64112.03;;;20.39;66.78
6899;BME280;3488;42.616;23.350;2022-08-06T01:27:36;64104.75;;;20.37;66.71
6899;BME280;3488;42.616;23.350;2022-08-06T01:30:07;64114.13;;;20.41;68.45
6899;BME280;3488;42.616;23.350;2022-08-06T01:32:38;64112.56;;;20.42;67.72
6899;BME280;3488;42.616;23.350;2022-08-06T01:35:10;64107.84;;;20.35;67.88
6899;BME280;3488;42.616;23.350;2022-08-06T01:37:42;64104.19;;;20.31;68.65
6899;BME280;3488;42.616;23.350;2022-08-06T01:40:14;64103.16;;;20.33;68.14
6899;BME280;3488;42.616;23.350;2022-08-06T01:42:44;64098.00;;;20.30;68.98
6899;BME280;3488;42.616;23.350;2022-08-06T01:45:14;64108.38;;;20.35;68.80
6899;BME280;3488;42.616;23.350;2022-08-06T01:47:45;64097.44;;;20.27;69.15
6899;BME280;3488;42.616;23.350;2022-08-06T01:50:15;64094.84;;;20.25;69.51
6899;BME280;3488;42.616;23.350;2022-08-06T01:52:43;64093.22;;;20.21;70.17
6899;BME280;3488;42.616;23.350;2022-08-06T01:55:14;64087.50;;;20.15;69.89
6899;BME280;3488;42.616;23.350;2022-08-06T01:57:45;64081.25;;;20.12;69.57
6899;BME280;3488;42.616;23.350;2022-08-06T02:00:14;64075.53;;;20.09;69.79
6899;BME280;3488;42.616;23.350;2022-08-06T02:02:42;64076.53;;;20.07;69.75
6899;BME280;3488;42.616;23.350;2022-08-06T02:05:12;64076.53;;;20.07;69.13
6899;BME280;3488;42.616;23.350;2022-08-06T02:07:41;64076.03;;;20.07;70.86
6899;BME280;3488;42.616;23.350;2022-08-06T02:10:11;64067.72;;;20.04;71.50
6899;BME280;3488;42.616;23.350;2022-08-06T02:12:40;64071.84;;;20.03;71.48
6899;BME280;3488;42.616;23.350;2022-08-06T02:15:12;64064.00;;;19.93;71.91
6899;BME280;3488;42.616;23.350;2022-08-06T02:17:43;64057.25;;;19.89;71.14
6899;BME280;3488;42.616;23.350;2022-08-06T02:20:14;64057.78;;;19.92;71.06
6899;BME280;3488;42.616;23.350;2022-08-06T02:22:44;64058.81;;;19.88;70.15
6899;BME280;3488;42.616;23.350;2022-08-06T02:25:13;64054.63;;;19.84;69.97
6899;BME280;3488;42.616;23.350;2022-08-06T07:45:11;64717.88;;;26.20;50.29
6899;BME280;3488;42.616;23.350;2022-08-06T07:47:41;64718.94;;;26.24;50.97
6899;BME280;3488;42.616;23.350;2022-08-06T07:50:11;64715.25;;;26.20;51.19
6899;BME280;3488;42.616;23.350;2022-08-06T07:52:39;64719.97;;;26.23;50.90
6899;BME280;3488;42.616;23.350;2022-08-06T07:55:08;64741.47;;;26.46;51.81
6899;BME280;3488;42.616;23.350;2022-08-06T07:57:36;64765.09;;;26.68;49.54
6899;BME280;3488;42.616;23.350;2022-08-06T08:00:05;64779.78;;;26.82;49.03
6899;BME280;3488;42.616;23.350;2022-08-06T08:02:33;64781.34;;;26.84;49.05
6899;BME280;3488;42.616;23.350;2022-08-06T08:05:00;64811.75;;;27.08;47.92
6899;BME280;3488;42.616;23.350;2022-08-06T08:07:50;64818.56;;;27.12;47.33
6899;BME280;3488;42.616;23.350;2022-08-06T08:10:18;64844.28;;;27.37;47.48
6899;BME280;3488;42.616;23.350;2022-08-06T08:12:45;64817.00;;;27.15;45.53
6899;BME280;3488;42.616;23.350;2022-08-06T08:15:13;64822.78;;;27.21;43.14
6899;BME280;3488;42.616;23.350;2022-08-06T08:17:41;64834.88;;;27.35;45.24
6899;BME280;3488;42.616;23.350;2022-08-06T08:20:09;64857.44;;;27.54;44.84
6899;BME280;3488;42.616;23.350;2022-08-06T08:22:38;64873.69;;;27.70;44.08
6899;BME280;3488;42.616;23.350;2022-08-06T08:25:06;64884.72;;;27.85;44.35
6899;BME280;3488;42.616;23.350;2022-08-06T08:27:34;64888.91;;;27.84;44.35
6899;BME280;3488;42.616;23.350;2022-08-06T08:30:01;64913.06;;;28.10;43.14
6899;BME280;3488;42.616;23.350;2022-08-06T08:32:28;64925.16;;;28.19;42.55
6899;BME280;3488;42.616;23.350;2022-08-06T08:34:56;64933.56;;;28.29;42.67
6899;BME280;3488;42.616;23.350;2022-08-06T08:37:24;64939.84;;;28.35;42.02
6899;BME280;3488;42.616;23.350;2022-08-06T08:39:51;64940.91;;;28.31;42.06
6899;BME280;3488;42.616;23.350;2022-08-06T08:42:20;64940.88;;;28.34;40.93
6899;BME280;3488;42.616;23.350;2022-08-06T08:44:49;64941.94;;;28.37;40.43
6899;BME280;3488;42.616;23.350;2022-08-06T08:47:18;64937.22;;;28.30;40.28
6899;BME280;3488;42.616;23.350;2022-08-06T08:49:47;64945.63;;;28.41;40.20
6899;BME280;3488;42.616;23.350;2022-08-06T08:52:23;64973.47;;;28.68;41.34
6899;BME280;3488;42.616;23.350;2022-08-06T08:54:51;64990.28;;;28.81;40.46
6899;BME280;3488;42.616;23.350;2022-08-06T08:57:21;65012.34;;;29.02;39.54
6899;BME280;3488;42.616;23.350;2022-08-06T08:59:49;65016.00;;;29.03;41.01
6899;BME280;3488;42.616;23.350;2022-08-06T09:02:16;65034.94;;;29.26;41.12
6899;BME280;3488;42.616;23.350;2022-08-06T09:04:44;65048.06;;;29.39;38.94
6899;BME280;3488;42.616;23.350;2022-08-06T09:07:12;65059.09;;;29.47;38.06
6899;BME280;3488;42.616;23.350;2022-08-06T09:09:41;65064.91;;;29.52;37.86
6899;BME280;3488;42.616;23.350;2022-08-06T09:12:08;65048.06;;;29.39;37.14
6899;BME280;3488;42.616;23.350;2022-08-06T09:14:36;65042.81;;;29.36;37.61
6899;BME280;3488;42.616;23.350;2022-08-06T09:17:04;65044.41;;;29.35;37.63
6899;BME280;3488;42.616;23.350;2022-08-06T09:19:32;65070.66;;;29.61;38.58
6899;BME280;3488;42.616;23.350;2022-08-06T09:21:59;65096.44;;;29.85;39.04
6899;BME280;3488;42.616;23.350;2022-08-06T09:24:27;65108.50;;;29.94;37.99
6899;BME280;3488;42.616;23.350;2022-08-06T09:27:09;65134.81;;;30.17;37.34
6899;BME280;3488;42.616;23.350;2022-08-06T09:29:36;65129.03;;;30.11;36.64
6899;BME280;3488;42.616;23.350;2022-08-06T09:32:43;65103.25;;;29.89;36.39
6899;BME280;3488;42.616;23.350;2022-08-06T09:35:21;65110.09;;;29.98;36.04
6899;BME280;3488;42.616;23.350;2022-08-06T09:37:50;65098.00;;;29.82;35.76
6899;BME280;3488;42.616;23.350;2022-08-06T09:40:18;65106.94;;;29.90;36.01
6899;BME280;3488;42.616;23.350;2022-08-06T09:42:48;65101.69;;;29.90;37.46
6899;BME280;3488;42.616;23.350;2022-08-06T09:45:17;65112.75;;;30.01;35.87
6899;BME280;3488;42.616;23.350;2022-08-06T09:47:45;65111.16;;;29.97;36.95
6899;BME280;3488;42.616;23.350;2022-08-06T09:50:12;65114.81;;;29.98;35.85
6899;BME280;3488;42.616;23.350;2022-08-06T09:52:40;65121.13;;;30.04;35.77
6899;BME280;3488;42.616;23.350;2022-08-06T09:55:07;65133.75;;;30.16;36.82
6899;BME280;3488;42.616;23.350;2022-08-06T09:57:55;65156.38;;;30.37;35.07
6899;BME280;3488;42.616;23.350;2022-08-06T10:00:26;65170.56;;;30.58;34.61
6899;BME280;3488;42.616;23.350;2022-08-06T10:02:58;65176.34;;;30.61;35.15
6899;BME280;3488;42.616;23.350;2022-08-06T10:05:26;65166.91;;;30.50;34.17
6899;BME280;3488;42.616;23.350;2022-08-06T10:08:05;65186.88;;;30.72;34.06
6899;BME280;3488;42.616;23.350;2022-08-06T10:10:44;65160.59;;;30.44;33.34
6899;BME280;3488;42.616;23.350;2022-08-06T10:13:26;65187.94;;;30.73;35.09
6899;BME280;3488;42.616;23.350;2022-08-06T10:15:55;65217.41;;;30.96;34.18
6899;BME280;3488;42.616;23.350;2022-08-06T10:18:38;65250.53;;;31.27;34.70
6899;BME280;3488;42.616;23.350;2022-08-06T10:21:06;65280.03;;;31.53;35.03
6899;BME280;3488;42.616;23.350;2022-08-06T10:23:34;65306.34;;;31.86;34.45
6899;BME280;3488;42.616;23.350;2022-08-06T10:26:04;65329.00;;;32.10;32.95
6899;BME280;3488;42.616;23.350;2022-08-06T10:28:34;65320.56;;;31.94;33.87
6899;BME280;3488;42.616;23.350;2022-08-06T10:31:03;65300.56;;;31.80;33.13
6899;BME280;3488;42.616;23.350;2022-08-06T10:33:36;65322.69;;;31.94;34.02
6899;BME280;3488;42.616;23.350;2022-08-06T10:36:10;65326.88;;;32.05;32.14
6899;BME280;3488;42.616;23.350;2022-08-06T10:38:42;65297.91;;;31.73;31.56
6899;BME280;3488;42.616;23.350;2022-08-06T10:41:12;65275.81;;;31.56;31.54
6899;BME280;3488;42.616;23.350;2022-08-06T10:43:41;65241.09;;;31.18;33.07
6899;BME280;3488;42.616;23.350;2022-08-06T10:46:09;65215.28;;;30.96;33.77
6899;BME280;3488;42.616;23.350;2022-08-06T10:48:40;65210.56;;;30.92;33.11
6899;BME280;3488;42.616;23.350;2022-08-06T10:51:09;65231.59;;;31.12;34.33
6899;BME280;3488;42.616;23.350;2022-08-06T10:53:38;65282.66;;;31.60;32.89
6899;BME280;3488;42.616;23.350;2022-08-06T10:56:08;65329.53;;;32.03;32.50
6899;BME280;3488;42.616;23.350;2022-08-06T10:58:36;65335.31;;;32.13;31.41
6899;BME280;3488;42.616;23.350;2022-08-06T11:01:08;65350.03;;;32.25;31.02
6899;BME280;3488;42.616;23.350;2022-08-06T11:03:44;65330.56;;;32.06;31.42
6899;BME280;3488;42.616;23.350;2022-08-06T11:06:41;65374.81;;;32.51;31.30
6899;BME280;3488;42.616;23.350;2022-08-06T11:09:21;65349.53;;;32.27;30.42
6899;BME280;3488;42.616;23.350;2022-08-06T11:12:05;65372.72;;;32.41;31.19
6899;BME280;3488;42.616;23.350;2022-08-06T11:14:38;65379.56;;;32.53;31.13
6899;BME280;3488;42.616;23.350;2022-08-06T11:17:07;65287.41;;;31.62;30.96
6899;BME280;3488;42.616;23.350;2022-08-06T11:19:39;65190.03;;;30.77;33.10
6899;BME280;3488;42.616;23.350;2022-08-06T11:22:06;65187.94;;;30.73;32.63
6899;BME280;3488;42.616;23.350;2022-08-06T11:24:49;65198.47;;;30.83;32.78
6899;BME280;3488;42.616;23.350;2022-08-06T11:27:47;65223.19;;;31.04;33.86
6899;BME280;3488;42.616;23.350;2022-08-06T11:30:15;65224.22;;;31.05;32.22
6899;BME280;3488;42.616;23.350;2022-08-06T11:32:45;65212.66;;;30.91;32.73
6899;BME280;3488;42.616;23.350;2022-08-06T11:35:38;65194.78;;;30.72;33.41
6899;BME280;3488;42.616;23.350;2022-08-06T11:38:06;65251.59;;;31.31;32.38
6899;BME280;3488;42.616;23.350;2022-08-06T11:40:53;65294.22;;;31.69;33.03
6899;BME280;3488;42.616;23.350;2022-08-06T11:43:47;65303.69;;;31.81;32.21
6899;BME280;3488;42.616;23.350;2022-08-06T11:46:20;65291.09;;;31.66;32.78
6899;BME280;3488;42.616;23.350;2022-08-06T11:49:23;65268.44;;;31.44;32.95
6899;BME280;3488;42.616;23.350;2022-08-06T11:51:53;65320.56;;;31.94;32.33
6899;BME280;3488;42.616;23.350;2022-08-06T11:54:21;65323.19;;;32.02;31.50
6899;BME280;3488;42.616;23.350;2022-08-06T11:57:23;65321.63;;;32.00;31.48
6899;BME280;3488;42.616;23.350;2022-08-06T12:00:13;65248.44;;;31.23;32.65
6899;BME280;3488;42.616;23.350;2022-08-06T12:02:55;65206.88;;;30.88;32.65
6899;BME280;3488;42.616;23.350;2022-08-06T12:05:38;65198.97;;;30.81;32.23
6899;BME280;3488;42.616;23.350;2022-08-06T12:08:25;65212.16;;;30.96;33.12
6899;BME280;3488;42.616;23.350;2022-08-06T12:11:27;65227.41;;;31.05;33.43
6899;BME280;3488;42.616;23.350;2022-08-06T12:13:56;65235.28;;;31.18;33.47
6899;BME280;3488;42.616;23.350;2022-08-06T12:16:37;65212.66;;;30.91;32.70
6899;BME280;3488;42.616;23.350;2022-08-06T12:19:11;65175.84;;;30.58;32.79
6899;BME280;3488;42.616;23.350;2022-08-06T12:21:41;65178.97;;;30.61;33.62
6899;BME280;3488;42.616;23.350;2022-08-06T12:24:10;65204.25;;;30.86;33.28
6899;BME280;3488;42.616;23.350;2022-08-06T12:26:37;65215.84;;;30.94;33.48
6899;BME280;3488;42.616;23.350;2022-08-06T12:29:05;65218.47;;;30.99;33.55
6899;BME280;3488;42.616;23.350;2022-08-06T12:31:35;65231.59;;;31.12;33.95
6899;BME280;3488;42.616;23.350;2022-08-06T12:34:02;65255.81;;;31.35;33.22
6899;BME280;3488;42.616;23.350;2022-08-06T12:36:31;65235.28;;;31.18;33.11
6899;BME280;3488;42.616;23.350;2022-08-06T12:39:01;65159.53;;;30.43;33.61
6899;BME280;3488;42.616;23.350;2022-08-06T12:41:37;65130.59;;;30.18;34.15
6899;BME280;3488;42.616;23.350;2022-08-06T12:44:06;65139.53;;;30.21;34.57
6899;BME280;3488;42.616;23.350;2022-08-06T12:46:34;65174.78;;;30.55;33.81
6899;BME280;3488;42.616;23.350;2022-08-06T12:49:01;65173.72;;;30.56;33.52
6899;BME280;3488;42.616;23.350;2022-08-06T12:51:28;65188.97;;;30.76;34.69
6899;BME280;3488;42.616;23.350;2022-08-06T12:53:57;65192.66;;;30.75;33.02
6899;BME280;3488;42.616;23.350;2022-08-06T12:56:27;65184.25;;;30.69;32.97
6899;BME280;3488;42.616;23.350;2022-08-06T12:58:55;65220.03;;;31.03;31.28
6899;BME280;3488;42.616;23.350;2022-08-06T13:01:25;65230.53;;;31.13;31.54
6899;BME280;3488;42.616;23.350;2022-08-06T13:03:54;65200.06;;;30.82;31.96
6899;BME280;3488;42.616;23.350;2022-08-06T13:06:24;65173.19;;;30.58;32.93
6899;BME280;3488;42.616;23.350;2022-08-06T13:08:53;65203.19;;;30.85;32.30
6899;BME280;3488;42.616;23.350;2022-08-06T13:11:20;65250.00;;;31.29;33.31
6899;BME280;3488;42.616;23.350;2022-08-06T13:13:50;65292.66;;;31.73;31.71
6899;BME280;3488;42.616;23.350;2022-08-06T13:16:18;65358.47;;;32.30;31.66
6899;BME280;3488;42.616;23.350;2022-08-06T13:19:04;65402.72;;;32.75;30.68
6899;BME280;3488;42.616;23.350;2022-08-06T13:21:31;65407.47;;;32.82;30.02
6899;BME280;3488;42.616;23.350;2022-08-06T13:24:01;65422.75;;;32.94;30.78
6899;BME280;3488;42.616;23.350;2022-08-06T13:26:30;65491.25;;;33.57;31.39
6899;BME280;3488;42.616;23.350;2022-08-06T13:29:10;65526.56;;;33.93;30.21
6899;BME280;3488;42.616;23.350;2022-08-06T13:31:38;65577.72;;;34.44;29.45
6899;BME280;3488;42.616;23.350;2022-08-06T13:34:07;65632.56;;;34.97;28.04
6899;BME280;3488;42.616;23.350;2022-08-06T13:36:36;65632.03;;;34.96;27.19
6899;BME280;3488;42.616;23.350;2022-08-06T13:39:19;65646.84;;;35.05;26.68
6899;BME280;3488;42.616;23.350;2022-08-06T13:41:46;65567.69;;;34.32;25.73
6899;BME280;3488;42.616;23.350;2022-08-06T13:44:32;65485.97;;;33.54;27.10
6899;BME280;3488;42.616;23.350;2022-08-06T13:46:59;65391.66;;;32.72;27.75
6899;BME280;3488;42.616;23.350;2022-08-06T13:49:27;65353.72;;;32.28;28.15
6899;BME280;3488;42.616;23.350;2022-08-06T13:51:54;65369.53;;;32.46;27.94
6899;BME280;3488;42.616;23.350;2022-08-06T13:54:22;65395.34;;;32.65;27.79
6899;BME280;3488;42.616;23.350;2022-08-06T13:56:50;65401.66;;;32.74;28.40
6899;BME280;3488;42.616;23.350;2022-08-06T13:59:18;65359.50;;;32.39;28.52
6899;BME280;3488;42.616;23.350;2022-08-06T14:01:47;65303.19;;;31.78;29.46
6899;BME280;3488;42.616;23.350;2022-08-06T14:04:14;65231.06;;;31.14;29.56
6899;BME280;3488;42.616;23.350;2022-08-06T14:06:42;65199.53;;;30.81;30.61
6899;BME280;3488;42.616;23.350;2022-08-06T14:09:10;65164.78;;;30.48;31.16
6899;BME280;3488;42.616;23.350;2022-08-06T14:11:37;65159.53;;;30.40;31.34
6899;BME280;3488;42.616;23.350;2022-08-06T14:14:04;65195.28;;;30.75;31.28
6899;BME280;3488;42.616;23.350;2022-08-06T14:16:31;65234.75;;;31.12;30.16
6899;BME280;3488;42.616;23.350;2022-08-06T14:19:00;65258.97;;;31.40;29.70
6899;BME280;3488;42.616;23.350;2022-08-06T14:21:27;65352.69;;;32.25;28.14
6899;BME280;3488;42.616;23.350;2022-08-06T14:23:54;65421.16;;;32.88;28.20
6899;BME280;3488;42.616;23.350;2022-08-06T14:26:21;65437.50;;;33.11;27.76
6899;BME280;3488;42.616;23.350;2022-08-06T14:28:48;65416.94;;;32.89;28.10
6899;BME280;3488;42.616;23.350;2022-08-06T14:31:15;65511.25;;;33.81;27.61
6899;BME280;3488;42.616;23.350;2022-08-06T14:33:41;65581.41;;;34.48;26.92
6899;BME280;3488;42.616;23.350;2022-08-06T14:36:10;65654.19;;;35.20;26.67
6899;BME280;3488;42.616;23.350;2022-08-06T14:38:37;65623.63;;;34.80;24.99
6899;BME280;3488;42.616;23.350;2022-08-06T14:41:06;65513.38;;;33.78;26.33
6899;BME280;3488;42.616;23.350;2022-08-06T14:43:50;65431.19;;;33.00;27.22
6899;BME280;3488;42.616;23.350;2022-08-06T14:46:31;65386.94;;;32.60;28.29
6899;BME280;3488;42.616;23.350;2022-08-06T14:48:58;65368.50;;;32.42;28.81
6899;BME280;3488;42.616;23.350;2022-08-06T14:51:27;65313.19;;;31.92;29.43
6899;BME280;3488;42.616;23.350;2022-08-06T14:53:54;65286.88;;;31.64;29.68
6899;BME280;3488;42.616;23.350;2022-08-06T14:56:21;65215.28;;;30.96;30.45
6899;BME280;3488;42.616;23.350;2022-08-06T14:58:48;65207.94;;;30.84;30.35
6899;BME280;3488;42.616;23.350;2022-08-06T15:01:15;65235.81;;;31.16;29.18
6899;BME280;3488;42.616;23.350;2022-08-06T15:03:42;65268.97;;;31.50;28.96
6899;BME280;3488;42.616;23.350;2022-08-06T15:06:09;65321.09;;;31.97;28.60
6899;BME280;3488;42.616;23.350;2022-08-06T15:08:37;65315.28;;;31.97;28.34
6899;BME280;3488;42.616;23.350;2022-08-06T15:11:04;65323.72;;;31.95;28.87
6899;BME280;3488;42.616;23.350;2022-08-06T15:13:31;65309.50;;;31.84;29.26
6899;BME280;3488;42.616;23.350;2022-08-06T15:15:58;65269.50;;;31.48;29.99
6899;BME280;3488;42.616;23.350;2022-08-06T15:18:25;65245.81;;;31.25;30.69
6899;BME280;3488;42.616;23.350;2022-08-06T15:20:52;65257.41;;;31.39;29.91
6899;BME280;3488;42.616;23.350;2022-08-06T15:23:19;65272.66;;;31.51;30.54
6899;BME280;3488;42.616;23.350;2022-08-06T15:25:47;65262.13;;;31.41;30.54
6899;BME280;3488;42.616;23.350;2022-08-06T15:28:15;65230.56;;;31.11;30.38
6899;BME280;3488;42.616;23.350;2022-08-06T15:30:43;65207.94;;;30.89;30.92
6899;BME280;3488;42.616;23.350;2022-08-06T15:33:09;65251.59;;;31.26;30.51
6899;BME280;3488;42.616;23.350;2022-08-06T15:35:36;65272.66;;;31.51;30.31
6899;BME280;3488;42.616;23.350;2022-08-06T15:38:03;65308.97;;;31.88;30.11
6899;BME280;3488;42.616;23.350;2022-08-06T15:40:30;65330.56;;;32.09;29.77
6899;BME280;3488;42.616;23.350;2022-08-06T15:42:58;65342.16;;;32.12;29.59
6899;BME280;3488;42.616;23.350;2022-08-06T15:45:25;65370.59;;;32.42;29.73
6899;BME280;3488;42.616;23.350;2022-08-06T15:47:52;65384.28;;;32.55;29.56
6899;BME280;3488;42.616;23.350;2022-08-06T15:50:19;65386.41;;;32.54;30.23
6899;BME280;3488;42.616;23.350;2022-08-06T15:52:46;65383.75;;;32.57;30.55
6899;BME280;3488;42.616;23.350;2022-08-06T15:55:13;65386.94;;;32.60;29.33
6899;BME280;3488;42.616;23.350;2022-08-06T15:57:40;65303.69;;;31.81;29.80
6899;BME280;3488;42.616;23.350;2022-08-06T16:00:10;65246.88;;;31.26;30.39
6899;BME280;3488;42.616;23.350;2022-08-06T16:02:38;65223.72;;;31.02;31.03
6899;BME280;3488;42.616;23.350;2022-08-06T16:05:06;65196.88;;;30.76;31.28
6899;BME280;3488;42.616;23.350;2022-08-06T16:07:33;65194.22;;;30.74;31.63
6899;BME280;3488;42.616;23.350;2022-08-06T16:10:00;65199.53;;;30.84;31.89
6899;BME280;3488;42.616;23.350;2022-08-06T16:12:27;65204.25;;;30.83;31.89
6899;BME280;3488;42.616;23.350;2022-08-06T16:14:54;65201.63;;;30.83;32.53
6899;BME280;3488;42.616;23.350;2022-08-06T16:17:23;65182.16;;;30.65;32.71
6899;BME280;3488;42.616;23.350;2022-08-06T16:19:50;65176.91;;;30.54;32.89
6899;BME280;3488;42.616;23.350;2022-08-06T16:22:17;65146.94;;;30.28;33.20
6899;BME280;3488;42.616;23.350;2022-08-06T16:24:44;65160.59;;;30.46;32.79
6899;BME280;3488;42.616;23.350;2022-08-06T16:27:13;65158.47;;;30.44;32.43
6899;BME280;3488;42.616;23.350;2022-08-06T16:29:41;65136.91;;;30.21;32.17
6899;BME280;3488;42.616;23.350;2022-08-06T16:32:08;65149.03;;;30.35;32.13
6899;BME280;3488;42.616;23.350;2022-08-06T16:34:36;65135.84;;;30.18;32.48
6899;BME280;3488;42.616;23.350;2022-08-06T16:37:03;65154.28;;;30.35;32.32
6899;BME280;3488;42.616;23.350;2022-08-06T16:39:30;65183.19;;;30.66;32.02
6899;BME280;3488;42.616;23.350;2022-08-06T16:41:57;65209.53;;;30.91;32.61
6899;BME280;3488;42.616;23.350;2022-08-06T16:44:24;65230.53;;;31.08;31.37
6899;BME280;3488;42.616;23.350;2022-08-06T16:46:52;65223.72;;;30.99;31.68
6899;BME280;3488;42.616;23.350;2022-08-06T16:49:19;65233.16;;;31.13;32.05
6899;BME280;3488;42.616;23.350;2022-08-06T16:51:47;65255.28;;;31.32;32.56
6899;BME280;3488;42.616;23.350;2022-08-06T16:54:14;65268.44;;;31.47;31.94
6899;BME280;3488;42.616;23.350;2022-08-06T16:56:41;65278.97;;;31.57;31.76
6899;BME280;3488;42.616;23.350;2022-08-06T16:59:08;65247.91;;;31.27;32.10
6899;BME280;3488;42.616;23.350;2022-08-06T17:01:35;65242.13;;;31.19;32.36
6899;BME280;3488;42.616;23.350;2022-08-06T17:04:02;65223.19;;;31.06;32.32
6899;BME280;3488;42.616;23.350;2022-08-06T17:06:29;65204.25;;;30.88;32.36
6899;BME280;3488;42.616;23.350;2022-08-06T17:08:59;65184.78;;;30.67;33.01
6899;BME280;3488;42.616;23.350;2022-08-06T17:11:27;65160.59;;;30.46;32.64
6899;BME280;3488;42.616;23.350;2022-08-06T17:13:54;65145.34;;;30.29;33.20
6899;BME280;3488;42.616;23.350;2022-08-06T17:16:21;65118.50;;;30.04;33.21
6899;BME280;3488;42.616;23.350;2022-08-06T17:18:48;65106.94;;;29.93;33.96
6899;BME280;3488;42.616;23.350;2022-08-06T17:21:18;65093.81;;;29.83;34.17
6899;BME280;3488;42.616;23.350;2022-08-06T17:23:45;65083.28;;;29.68;35.20
6899;BME280;3488;42.616;23.350;2022-08-06T17:26:14;65062.25;;;29.50;34.00
6899;BME280;3488;42.616;23.350;2022-08-06T17:28:40;65048.59;;;29.37;35.33
6899;BME280;3488;42.616;23.350;2022-08-06T17:31:07;65033.38;;;29.25;36.13
6899;BME280;3488;42.616;23.350;2022-08-06T17:33:34;65017.06;;;29.07;36.99
6899;BME280;3488;42.616;23.350;2022-08-06T17:36:01;64995.53;;;28.86;37.90
6899;BME280;3488;42.616;23.350;2022-08-06T17:38:28;64977.13;;;28.64;37.92
6899;BME280;3488;42.616;23.350;2022-08-06T17:40:55;64951.38;;;28.44;37.84
6899;BME280;3488;42.616;23.350;2022-08-06T17:43:23;64923.56;;;28.17;38.54
6899;BME280;3488;42.616;23.350;2022-08-06T17:45:51;64901.00;;;27.93;38.97
6899;BME280;3488;42.616;23.350;2022-08-06T17:48:18;64869.50;;;27.71;39.15
6899;BME280;3488;42.616;23.350;2022-08-06T17:50:44;64857.94;;;27.50;39.87
6899;BME280;3488;42.616;23.350;2022-08-06T17:53:11;64820.69;;;27.19;40.37
6899;BME280;3488;42.616;23.350;2022-08-06T17:55:39;64803.38;;;27.05;40.95
6899;BME280;3488;42.616;23.350;2022-08-06T17:58:07;64776.09;;;26.79;41.04
6899;BME280;3488;42.616;23.350;2022-08-06T18:00:35;64765.63;;;26.69;42.17
6899;BME280;3488;42.616;23.350;2022-08-06T18:03:03;64753.53;;;26.55;41.91
6899;BME280;3488;42.616;23.350;2022-08-06T18:05:30;64732.56;;;26.35;42.09
6899;BME280;3488;42.616;23.350;2022-08-06T18:07:58;64719.44;;;26.22;42.72
6899;BME280;3488;42.616;23.350;2022-08-06T18:10:25;64713.16;;;26.16;42.83
6899;BME280;3488;42.616;23.350;2022-08-06T18:12:55;64711.56;;;26.09;42.80
6899;BME280;3488;42.616;23.350;2022-08-06T18:15:24;64694.28;;;25.98;43.11
6899;BME280;3488;42.616;23.350;2022-08-06T18:17:54;64697.91;;;25.99;42.94
6899;BME280;3488;42.616;23.350;2022-08-06T18:20:23;64682.22;;;25.86;43.34
6899;BME280;3488;42.616;23.350;2022-08-06T18:22:49;64682.72;;;25.87;43.05
6899;BME280;3488;42.616;23.350;2022-08-06T18:25:17;64681.72;;;25.88;43.20
6899;BME280;3488;42.616;23.350;2022-08-06T18:27:44;64683.78;;;25.83;43.51
6899;BME280;3488;42.616;23.350;2022-08-06T18:30:13;64681.69;;;25.86;43.78
6899;BME280;3488;42.616;23.350;2022-08-06T18:32:40;64676.44;;;25.81;44.18
6899;BME280;3488;42.616;23.350;2022-08-06T18:35:09;64676.97;;;25.81;43.43
6899;BME280;3488;42.616;23.350;2022-08-06T18:37:37;64652.34;;;25.55;45.59
6899;BME280;3488;42.616;23.350;2022-08-06T18:40:05;64654.41;;;25.55;45.33
6899;BME280;3488;42.616;23.350;2022-08-06T18:42:33;64660.22;;;25.65;44.44